sensor_id;sensor_type;location;lat;lon;timestamp;pressure;altitude;pressure_sealevel;temperature;humidity
76637;BME280;65532;52.124;5.480;2023-11-19T00:02:26;100763.81;;;12.85;89.99
76637;BME280;65532;52.124;5.480;2023-11-19T00:04:53;100756.72;;;12.84;89.61
76637;BME280;65532;52.124;5.480;2023-11-19T00:07:20;100764.06;;;12.84;90.11
76637;BME280;65532;52.124;5.480;2023-11-19T00:09:47;100772.22;;;12.84;90.69
76637;BME280;65532;52.124;5.480;2023-11-19T00:12:14;100757.81;;;12.83;91.45
76637;BME280;65532;52.124;5.480;2023-11-19T00:14:40;100751.28;;;12.84;91.93
76637;BME280;65532;52.124;5.480;2023-11-19T00:17:07;100752.88;;;12.80;93.41
76637;BME280;65532;52.124;5.480;2023-11-19T00:19:34;100761.03;;;12.80;93.87
76637;BME280;65532;52.124;5.480;2023-11-19T00:22:00;100756.41;;;12.81;94.87
76637;BME280;65532;52.124;5.480;2023-11-19T00:24:30;100755.84;;;12.79;95.00
76637;BME280;65532;52.124;5.480;2023-11-19T00:26:57;100772.38;;;12.77;95.35
76637;BME280;65532;52.124;5.480;2023-11-19T00:29:23;100752.78;;;12.75;96.05
76637;BME280;65532;52.124;5.480;2023-11-19T00:31:51;100746.50;;;12.75;95.96
76637;BME280;65532;52.124;5.480;2023-11-19T00:34:17;100750.56;;;12.72;95.72
76637;BME280;65532;52.124;5.480;2023-11-19T00:36:47;100749.47;;;12.73;95.87
76637;BME280;65532;52.124;5.480;2023-11-19T00:39:15;100730.47;;;12.73;95.71
76637;BME280;65532;52.124;5.480;2023-11-19T00:41:42;100733.69;;;12.70;96.28
76637;BME280;65532;52.124;5.480;2023-11-19T00:44:09;100739.63;;;12.67;96.45
76637;BME280;65532;52.124;5.480;2023-11-19T00:46:36;100740.19;;;12.69;95.11
76637;BME280;65532;52.124;5.480;2023-11-19T00:49:03;100735.31;;;12.71;94.60
76637;BME280;65532;52.124;5.480;2023-11-19T00:51:30;100734.50;;;12.71;95.36
76637;BME280;65532;52.124;5.480;2023-11-19T00:53:58;100717.38;;;12.70;95.15
76637;BME280;65532;52.124;5.480;2023-11-19T00:56:25;100718.22;;;12.71;95.39
76637;BME280;65532;52.124;5.480;2023-11-19T00:58:51;100715.50;;;12.71;95.70
76637;BME280;65532;52.124;5.480;2023-11-19T01:01:18;100719.84;;;12.72;96.23
76637;BME280;65532;52.124;5.480;2023-11-19T01:03:44;100722.81;;;12.70;97.36
76637;BME280;65532;52.124;5.480;2023-11-19T01:06:11;100733.69;;;12.70;98.04
76637;BME280;65532;52.124;5.480;2023-11-19T01:08:38;100732.03;;;12.69;98.73
76637;BME280;65532;52.124;5.480;2023-11-19T01:11:04;100721.19;;;12.69;99.45
76637;BME280;65532;52.124;5.480;2023-11-19T01:13:31;100722.25;;;12.68;100.00
76637;BME280;65532;52.124;5.480;2023-11-19T01:15:57;100736.66;;;12.69;100.00
76637;BME280;65532;52.124;5.480;2023-11-19T01:18:24;100727.69;;;12.68;100.00
76637;BME280;65532;52.124;5.480;2023-11-19T01:20:51;100706.53;;;12.70;100.00
76637;BME280;65532;52.124;5.480;2023-11-19T01:23:17;100706.53;;;12.70;100.00
76637;BME280;65532;52.124;5.480;2023-11-19T01:25:43;100699.75;;;12.73;100.00
76637;BME280;65532;52.124;5.480;2023-11-19T01:28:10;100704.38;;;12.72;100.00
76637;BME280;65532;52.124;5.480;2023-11-19T01:30:37;100702.16;;;12.69;100.00
76637;BME280;65532;52.124;5.480;2023-11-19T01:33:03;100695.91;;;12.69;100.00
76637;BME280;65532;52.124;5.480;2023-11-19T01:35:30;100687.75;;;12.69;100.00
76637;BME280;65532;52.124;5.480;2023-11-19T01:37:56;100697.81;;;12.68;100.00
76637;BME280;65532;52.124;5.480;2023-11-19T01:40:22;100696.16;;;12.67;100.00
76637;BME280;65532;52.124;5.480;2023-11-19T01:42:49;100697.81;;;12.68;100.00
76637;BME280;65532;52.124;5.480;2023-11-19T01:45:36;100698.94;;;12.72;100.00
76637;BME280;65532;52.124;5.480;2023-11-19T01:48:03;100694.34;;;12.73;100.00
76637;BME280;65532;52.124;5.480;2023-11-19T01:50:33;100706.03;;;12.73;100.00
76637;BME280;65532;52.124;5.480;2023-11-19T01:53:00;100696.22;;;12.72;100.00
76637;BME280;65532;52.124;5.480;2023-11-19T01:55:27;100687.75;;;12.69;100.00
76637;BME280;65532;52.124;5.480;2023-11-19T01:57:59;100712.47;;;12.67;100.00
76637;BME280;65532;52.124;5.480;2023-11-19T02:00:28;100696.16;;;12.67;100.00
76637;BME280;65532;52.124;5.480;2023-11-19T02:02:55;100703.50;;;12.67;100.00
76637;BME280;65532;52.124;5.480;2023-11-19T02:05:22;100699.94;;;12.66;100.00
76637;BME280;65532;52.124;5.480;2023-11-19T02:07:49;100698.31;;;12.65;100.00
76637;BME280;65532;52.124;5.480;2023-11-19T02:10:17;100694.75;;;12.65;100.00
76637;BME280;65532;52.124;5.480;2023-11-19T02:12:46;100690.06;;;12.60;100.00
76637;BME280;65532;52.124;5.480;2023-11-19T02:15:12;100676.41;;;12.55;100.00
76637;BME280;65532;52.124;5.480;2023-11-19T02:17:39;100684.50;;;12.50;100.00
76637;BME280;65532;52.124;5.480;2023-11-19T02:20:06;100697.97;;;12.45;100.00
76637;BME280;65532;52.124;5.480;2023-11-19T02:22:37;100687.03;;;12.40;100.00
76637;BME280;65532;52.124;5.480;2023-11-19T02:25:07;100703.25;;;12.35;100.00
76637;BME280;65532;52.124;5.480;2023-11-19T02:27:46;100707.50;;;12.30;100.00
76637;BME280;65532;52.124;5.480;2023-11-19T02:30:14;100713.44;;;12.27;100.00
76637;BME280;65532;52.124;5.480;2023-11-19T02:32:42;100711.22;;;12.24;100.00
76637;BME280;65532;52.124;5.480;2023-11-19T02:35:08;100716.06;;;12.22;100.00
76637;BME280;65532;52.124;5.480;2023-11-19T02:37:35;100717.97;;;12.22;100.00
76637;BME280;65532;52.124;5.480;2023-11-19T02:40:02;100720.34;;;12.18;100.00
76637;BME280;65532;52.124;5.480;2023-11-19T02:42:30;100703.94;;;12.13;100.00
76637;BME280;65532;52.124;5.480;2023-11-19T02:44:57;100704.94;;;12.07;100.00
76637;BME280;65532;52.124;5.480;2023-11-19T02:47:24;100706.50;;;12.03;100.00
76637;BME280;65532;52.124;5.480;2023-11-19T02:49:50;100696.72;;;12.02;100.00
76637;BME280;65532;52.124;5.480;2023-11-19T02:52:17;100694.13;;;11.95;100.00
76637;BME280;65532;52.124;5.480;2023-11-19T02:54:45;100696.28;;;11.93;100.00
76637;BME280;65532;52.124;5.480;2023-11-19T02:57:11;100701.38;;;11.90;100.00
76637;BME280;65532;52.124;5.480;2023-11-19T02:59:48;100701.03;;;11.86;100.00
76637;BME280;65532;52.124;5.480;2023-11-19T03:02:15;100707.78;;;11.84;100.00
76637;BME280;65532;52.124;5.480;2023-11-19T03:04:42;100709.88;;;11.82;100.00
76637;BME280;65532;52.124;5.480;2023-11-19T03:07:10;100703.28;;;11.78;100.00
76637;BME280;65532;52.124;5.480;2023-11-19T03:09:36;100708.63;;;11.73;100.00
76637;BME280;65532;52.124;5.480;2023-11-19T03:12:05;100713.91;;;11.67;100.00
76637;BME280;65532;52.124;5.480;2023-11-19T03:14:33;100699.22;;;11.63;100.00
76637;BME280;65532;52.124;5.480;2023-11-19T03:17:00;100705.69;;;11.62;100.00
76637;BME280;65532;52.124;5.480;2023-11-19T03:19:27;100713.75;;;11.57;100.00
76637;BME280;65532;52.124;5.480;2023-11-19T03:21:53;100700.09;;;11.52;100.00
76637;BME280;65532;52.124;5.480;2023-11-19T03:24:20;100716.00;;;11.49;100.00
76637;BME280;65532;52.124;5.480;2023-11-19T03:26:48;100706.94;;;11.43;100.00
76637;BME280;65532;52.124;5.480;2023-11-19T03:29:16;100714.75;;;11.39;100.00
76637;BME280;65532;52.124;5.480;2023-11-19T03:31:43;100707.31;;;11.35;100.00
76637;BME280;65532;52.124;5.480;2023-11-19T03:34:10;100707.22;;;11.30;100.00
76637;BME280;65532;52.124;5.480;2023-11-19T03:36:37;100707.69;;;11.27;100.00
76637;BME280;65532;52.124;5.480;2023-11-19T03:39:03;100694.63;;;11.24;100.00
76637;BME280;65532;52.124;5.480;2023-11-19T03:41:30;100690.72;;;11.20;100.00
76637;BME280;65532;52.124;5.480;2023-11-19T03:44:07;100687.44;;;11.18;100.00
76637;BME280;65532;52.124;5.480;2023-11-19T03:46:34;100679.53;;;11.16;100.00
76637;BME280;65532;52.124;5.480;2023-11-19T03:49:01;100685.69;;;11.12;100.00
76637;BME280;65532;52.124;5.480;2023-11-19T03:51:28;100691.00;;;11.06;100.00
76637;BME280;65532;52.124;5.480;2023-11-19T03:53:55;100692.75;;;11.01;100.00
76637;BME280;65532;52.124;5.480;2023-11-19T03:56:21;100699.50;;;10.98;100.00
76637;BME280;65532;52.124;5.480;2023-11-19T03:58:48;100702.91;;;10.94;100.00
76637;BME280;65532;52.124;5.480;2023-11-19T04:01:14;100702.34;;;10.92;100.00
76637;BME280;65532;52.124;5.480;2023-11-19T04:03:41;100712.34;;;10.91;100.00
76637;BME280;65532;52.124;5.480;2023-11-19T04:06:10;100705.72;;;10.87;100.00
76637;BME280;65532;52.124;5.480;2023-11-19T04:08:37;100706.22;;;10.84;100.00
76637;BME280;65532;52.124;5.480;2023-11-19T04:11:04;100707.63;;;10.87;100.00
76637;BME280;65532;52.124;5.480;2023-11-19T04:13:30;100707.28;;;10.83;100.00
76637;BME280;65532;52.124;5.480;2023-11-19T04:15:57;100714.00;;;10.80;100.00
76637;BME280;65532;52.124;5.480;2023-11-19T04:18:24;100709.41;;;10.81;100.00
76637;BME280;65532;52.124;5.480;2023-11-19T04:20:51;100715.16;;;10.85;100.00
76637;BME280;65532;52.124;5.480;2023-11-19T04:23:17;100712.69;;;10.83;100.00
76637;BME280;65532;52.124;5.480;2023-11-19T04:25:44;100719.16;;;10.82;100.00
76637;BME280;65532;52.124;5.480;2023-11-19T04:28:10;100723.19;;;10.79;100.00
76637;BME280;65532;52.124;5.480;2023-11-19T04:30:38;100727.53;;;10.80;100.00
76637;BME280;65532;52.124;5.480;2023-11-19T04:33:04;100721.53;;;10.78;100.00
76637;BME280;65532;52.124;5.480;2023-11-19T04:35:32;100713.06;;;10.75;100.00
76637;BME280;65532;52.124;5.480;2023-11-19T04:37:58;100724.13;;;10.73;100.00
76637;BME280;65532;52.124;5.480;2023-11-19T04:40:25;100716.22;;;10.72;100.00
76637;BME280;65532;52.124;5.480;2023-11-19T04:42:52;100714.56;;;10.71;100.00
76637;BME280;65532;52.124;5.480;2023-11-19T04:45:18;100723.16;;;10.68;100.00
76637;BME280;65532;52.124;5.480;2023-11-19T04:47:45;100721.53;;;10.67;100.00
76637;BME280;65532;52.124;5.480;2023-11-19T04:50:11;100723.63;;;10.65;100.00
76637;BME280;65532;52.124;5.480;2023-11-19T04:52:38;100720.94;;;10.65;100.00
76637;BME280;65532;52.124;5.480;2023-11-19T04:55:12;100711.16;;;10.64;100.00
76637;BME280;65532;52.124;5.480;2023-11-19T04:57:40;100712.22;;;10.63;100.00
76637;BME280;65532;52.124;5.480;2023-11-19T05:00:07;100707.16;;;10.66;100.00
76637;BME280;65532;52.124;5.480;2023-11-19T05:02:37;100703.03;;;10.64;100.00
76637;BME280;65532;52.124;5.480;2023-11-19T05:05:04;100710.69;;;10.67;100.00
76637;BME280;65532;52.124;5.480;2023-11-19T05:07:31;100713.88;;;10.64;100.00
76637;BME280;65532;52.124;5.480;2023-11-19T05:09:57;100715.16;;;10.61;100.00
76637;BME280;65532;52.124;5.480;2023-11-19T05:12:24;100721.50;;;10.55;100.00
76637;BME280;65532;52.124;5.480;2023-11-19T05:14:51;100721.75;;;10.54;100.00
76637;BME280;65532;52.124;5.480;2023-11-19T05:17:17;100740.69;;;10.54;100.00
76637;BME280;65532;52.124;5.480;2023-11-19T05:19:45;100736.34;;;10.53;100.00
76637;BME280;65532;52.124;5.480;2023-11-19T05:22:12;100729.84;;;10.54;100.00
76637;BME280;65532;52.124;5.480;2023-11-19T05:24:39;100730.91;;;10.53;100.00
76637;BME280;65532;52.124;5.480;2023-11-19T05:27:07;100721.16;;;10.52;100.00
76637;BME280;65532;52.124;5.480;2023-11-19T05:29:34;100723.28;;;10.49;100.00
76637;BME280;65532;52.124;5.480;2023-11-19T05:32:00;100720.81;;;10.48;100.00
76637;BME280;65532;52.124;5.480;2023-11-19T05:34:27;100729.97;;;10.47;100.00
76637;BME280;65532;52.124;5.480;2023-11-19T05:36:54;100727.75;;;10.44;100.00
76637;BME280;65532;52.124;5.480;2023-11-19T05:39:20;100729.03;;;10.41;100.00
76637;BME280;65532;52.124;5.480;2023-11-19T05:41:47;100723.41;;;10.43;100.00
76637;BME280;65532;52.124;5.480;2023-11-19T05:44:14;100724.66;;;10.40;100.00
76637;BME280;65532;52.124;5.480;2023-11-19T05:46:40;100724.06;;;10.38;100.00
76637;BME280;65532;52.124;5.480;2023-11-19T05:49:10;100727.47;;;10.34;100.00
76637;BME280;65532;52.124;5.480;2023-11-19T05:51:40;100734.78;;;10.33;100.00
76637;BME280;65532;52.124;5.480;2023-11-19T05:54:08;100729.13;;;10.35;100.00
76637;BME280;65532;52.124;5.480;2023-11-19T05:56:35;100741.84;;;10.34;100.00
76637;BME280;65532;52.124;5.480;2023-11-19T05:59:02;100735.94;;;10.37;100.00
76637;BME280;65532;52.124;5.480;2023-11-19T06:01:36;100738.53;;;10.32;100.00
76637;BME280;65532;52.124;5.480;2023-11-19T06:04:03;100746.66;;;10.32;100.00
76637;BME280;65532;52.124;5.480;2023-11-19T06:06:31;100728.53;;;10.33;100.00
76637;BME280;65532;52.124;5.480;2023-11-19T06:08:57;100732.91;;;10.34;100.00
76637;BME280;65532;52.124;5.480;2023-11-19T06:11:24;100733.94;;;10.33;100.00
76637;BME280;65532;52.124;5.480;2023-11-19T06:13:53;100725.00;;;10.32;100.00
76637;BME280;65532;52.124;5.480;2023-11-19T06:16:20;100733.13;;;10.32;100.00
76637;BME280;65532;52.124;5.480;2023-11-19T06:18:46;100727.13;;;10.30;100.00
76637;BME280;65532;52.124;5.480;2023-11-19T06:21:13;100734.66;;;10.28;100.00
76637;BME280;65532;52.124;5.480;2023-11-19T06:23:39;100731.56;;;10.25;100.00
76637;BME280;65532;52.124;5.480;2023-11-19T06:26:06;100740.97;;;10.22;100.00
76637;BME280;65532;52.124;5.480;2023-11-19T06:28:32;100744.13;;;10.19;100.00
76637;BME280;65532;52.124;5.480;2023-11-19T06:30:59;100749.75;;;10.17;100.00
76637;BME280;65532;52.124;5.480;2023-11-19T06:33:26;100745.41;;;10.16;100.00
76637;BME280;65532;52.124;5.480;2023-11-19T06:35:53;100745.41;;;10.16;100.00
76637;BME280;65532;52.124;5.480;2023-11-19T06:38:20;100761.63;;;10.16;100.00
76637;BME280;65532;52.124;5.480;2023-11-19T06:40:47;100761.75;;;10.10;100.00
76637;BME280;65532;52.124;5.480;2023-11-19T06:43:18;100753.84;;;10.08;100.00
76637;BME280;65532;52.124;5.480;2023-11-19T06:45:44;100761.75;;;10.10;100.00
76637;BME280;65532;52.124;5.480;2023-11-19T06:48:11;100762.19;;;10.07;100.00
76637;BME280;65532;52.124;5.480;2023-11-19T06:50:37;100764.31;;;10.05;100.00
76637;BME280;65532;52.124;5.480;2023-11-19T06:53:04;100774.88;;;10.06;100.00
76637;BME280;65532;52.124;5.480;2023-11-19T06:55:32;100777.34;;;10.08;100.00
76637;BME280;65532;52.124;5.480;2023-11-19T06:58:00;100768.81;;;10.11;100.00
76637;BME280;65532;52.124;5.480;2023-11-19T07:00:26;100763.41;;;10.11;100.00
76637;BME280;65532;52.124;5.480;2023-11-19T07:02:53;100769.63;;;10.11;100.00
76637;BME280;65532;52.124;5.480;2023-11-19T07:05:20;100766.69;;;10.13;100.00
76637;BME280;65532;52.124;5.480;2023-11-19T07:07:46;100770.59;;;10.17;100.00
76637;BME280;65532;52.124;5.480;2023-11-19T07:10:13;100776.59;;;10.19;100.00
76637;BME280;65532;52.124;5.480;2023-11-19T07:12:40;100776.16;;;10.22;100.00
76637;BME280;65532;52.124;5.480;2023-11-19T07:15:07;100788.38;;;10.25;100.00
76637;BME280;65532;52.124;5.480;2023-11-19T07:17:35;100788.19;;;10.26;100.00
76637;BME280;65532;52.124;5.480;2023-11-19T07:20:02;100792.53;;;10.27;100.00
76637;BME280;65532;52.124;5.480;2023-11-19T07:22:28;100798.53;;;10.29;100.00
76637;BME280;65532;52.124;5.480;2023-11-19T07:24:57;100794.31;;;10.33;100.00
76637;BME280;65532;52.124;5.480;2023-11-19T07:27:25;100792.78;;;10.37;100.00
76637;BME280;65532;52.124;5.480;2023-11-19T07:29:51;100807.53;;;10.41;100.00
76637;BME280;65532;52.124;5.480;2023-11-19T07:32:18;100798.34;;;10.42;100.00
76637;BME280;65532;52.124;5.480;2023-11-19T07:34:44;100807.06;;;10.44;100.00
76637;BME280;65532;52.124;5.480;2023-11-19T07:37:11;100802.25;;;10.46;100.00
76637;BME280;65532;52.124;5.480;2023-11-19T07:39:38;100798.25;;;10.49;100.00
76637;BME280;65532;52.124;5.480;2023-11-19T07:42:07;100796.94;;;10.52;100.00
76637;BME280;65532;52.124;5.480;2023-11-19T07:44:34;100804.00;;;10.53;100.00
76637;BME280;65532;52.124;5.480;2023-11-19T07:47:00;100804.00;;;10.53;100.00
76637;BME280;65532;52.124;5.480;2023-11-19T07:49:27;100804.00;;;10.53;100.00
76637;BME280;65532;52.124;5.480;2023-11-19T07:51:53;100806.47;;;10.54;100.00
76637;BME280;65532;52.124;5.480;2023-11-19T07:54:20;100808.94;;;10.56;100.00
76637;BME280;65532;52.124;5.480;2023-11-19T07:56:47;100813.53;;;10.55;100.00
76637;BME280;65532;52.124;5.480;2023-11-19T07:59:16;100798.75;;;10.58;100.00
76637;BME280;65532;52.124;5.480;2023-11-19T08:01:42;100800.97;;;10.61;100.00
76637;BME280;65532;52.124;5.480;2023-11-19T08:04:09;100800.75;;;10.62;100.00
76637;BME280;65532;52.124;5.480;2023-11-19T08:06:35;100801.69;;;10.68;100.00
76637;BME280;65532;52.124;5.480;2023-11-19T08:09:02;100794.16;;;10.70;100.00
76637;BME280;65532;52.124;5.480;2023-11-19T08:11:29;100799.81;;;10.80;100.00
76637;BME280;65532;52.124;5.480;2023-11-19T08:13:55;100797.81;;;10.87;100.00
76637;BME280;65532;52.124;5.480;2023-11-19T08:16:22;100792.53;;;10.92;100.00
76637;BME280;65532;52.124;5.480;2023-11-19T08:18:48;100799.59;;;10.93;100.00
76637;BME280;65532;52.124;5.480;2023-11-19T08:21:15;100801.84;;;10.96;100.00
76637;BME280;65532;52.124;5.480;2023-11-19T08:23:41;100803.00;;;11.00;100.00
76637;BME280;65532;52.124;5.480;2023-11-19T08:26:08;100816.34;;;11.14;100.00
76637;BME280;65532;52.124;5.480;2023-11-19T08:28:35;100798.44;;;11.13;100.00
76637;BME280;65532;52.124;5.480;2023-11-19T08:31:02;100786.44;;;11.08;100.00
76637;BME280;65532;52.124;5.480;2023-11-19T08:33:31;100797.25;;;11.08;100.00
76637;BME280;65532;52.124;5.480;2023-11-19T08:35:58;100809.38;;;11.18;100.00
76637;BME280;65532;52.124;5.480;2023-11-19T08:38:24;100799.47;;;11.35;100.00
76637;BME280;65532;52.124;5.480;2023-11-19T08:40:54;100801.81;;;11.43;100.00
76637;BME280;65532;52.124;5.480;2023-11-19T08:43:26;100821.75;;;11.37;100.00
76637;BME280;65532;52.124;5.480;2023-11-19T08:45:53;100813.50;;;11.32;100.00
76637;BME280;65532;52.124;5.480;2023-11-19T08:48:19;100814.31;;;11.32;100.00
76637;BME280;65532;52.124;5.480;2023-11-19T08:50:46;100815.97;;;11.33;100.00
76637;BME280;65532;52.124;5.480;2023-11-19T08:53:12;100817.03;;;11.32;100.00
76637;BME280;65532;52.124;5.480;2023-11-19T08:55:39;100810.19;;;11.30;100.00
76637;BME280;65532;52.124;5.480;2023-11-19T08:58:05;100815.63;;;11.30;100.00
76637;BME280;65532;52.124;5.480;2023-11-19T09:00:33;100814.81;;;11.29;100.00
76637;BME280;65532;52.124;5.480;2023-11-19T09:02:59;100815.63;;;11.30;100.00
76637;BME280;65532;52.124;5.480;2023-11-19T09:05:26;100820.56;;;11.33;100.00
76637;BME280;65532;52.124;5.480;2023-11-19T09:07:53;100815.88;;;11.40;100.00
76637;BME280;65532;52.124;5.480;2023-11-19T09:10:19;100817.03;;;11.44;100.00
76637;BME280;65532;52.124;5.480;2023-11-19T09:12:45;100819.84;;;11.49;100.00
76637;BME280;65532;52.124;5.480;2023-11-19T09:15:12;100822.69;;;11.54;100.00
76637;BME280;65532;52.124;5.480;2023-11-19T09:17:39;100817.84;;;11.56;100.00
76637;BME280;65532;52.124;5.480;2023-11-19T09:20:07;100824.69;;;11.59;100.00
76637;BME280;65532;52.124;5.480;2023-11-19T09:22:34;100809.56;;;11.63;100.00
76637;BME280;65532;52.124;5.480;2023-11-19T09:25:01;100813.69;;;11.65;100.00
76637;BME280;65532;52.124;5.480;2023-11-19T09:27:27;100812.88;;;11.65;100.00
76637;BME280;65532;52.124;5.480;2023-11-19T09:29:54;100807.44;;;11.65;100.00
76637;BME280;65532;52.124;5.480;2023-11-19T09:32:24;100805.78;;;11.64;100.00
76637;BME280;65532;52.124;5.480;2023-11-19T09:34:51;100810.38;;;11.63;100.00
76637;BME280;65532;52.124;5.480;2023-11-19T09:37:17;100810.97;;;11.65;100.00
76637;BME280;65532;52.124;5.480;2023-11-19T09:39:47;100808.25;;;11.65;100.00
76637;BME280;65532;52.124;5.480;2023-11-19T09:42:13;100823.47;;;11.66;100.00
76637;BME280;65532;52.124;5.480;2023-11-19T09:44:42;100811.34;;;11.69;100.00
76637;BME280;65532;52.124;5.480;2023-11-19T09:47:11;100807.53;;;11.82;100.00
76637;BME280;65532;52.124;5.480;2023-11-19T09:49:39;100802.00;;;11.88;100.00
76637;BME280;65532;52.124;5.480;2023-11-19T09:52:05;100804.97;;;11.87;100.00
76637;BME280;65532;52.124;5.480;2023-11-19T09:54:32;100802.47;;;11.85;100.00
76637;BME280;65532;52.124;5.480;2023-11-19T09:56:59;100802.25;;;11.87;100.00
76637;BME280;65532;52.124;5.480;2023-11-19T09:59:30;100797.41;;;11.89;100.00
76637;BME280;65532;52.124;5.480;2023-11-19T10:01:58;100789.00;;;11.90;100.00
76637;BME280;65532;52.124;5.480;2023-11-19T10:04:29;100791.47;;;11.92;100.00
76637;BME280;65532;52.124;5.480;2023-11-19T10:06:57;100801.84;;;11.95;100.00
76637;BME280;65532;52.124;5.480;2023-11-19T10:09:23;100787.34;;;12.01;100.00
76637;BME280;65532;52.124;5.480;2023-11-19T10:11:50;100790.91;;;12.18;100.00
76637;BME280;65532;52.124;5.480;2023-11-19T10:14:20;100793.13;;;12.21;100.00
76637;BME280;65532;52.124;5.480;2023-11-19T10:16:49;100792.72;;;12.29;100.00
76637;BME280;65532;52.124;5.480;2023-11-19T10:19:19;100788.06;;;12.42;100.00
76637;BME280;65532;52.124;5.480;2023-11-19T10:21:47;100770.72;;;12.59;100.00
76637;BME280;65532;52.124;5.480;2023-11-19T10:24:13;100780.94;;;12.69;100.00
76637;BME280;65532;52.124;5.480;2023-11-19T10:26:56;100777.91;;;12.82;100.00
76637;BME280;65532;52.124;5.480;2023-11-19T10:29:23;100776.50;;;12.97;100.00
76637;BME280;65532;52.124;5.480;2023-11-19T10:31:57;100761.25;;;12.96;100.00
76637;BME280;65532;52.124;5.480;2023-11-19T10:34:43;100777.81;;;12.94;100.00
76637;BME280;65532;52.124;5.480;2023-11-19T10:37:27;100775.50;;;12.86;100.00
76637;BME280;65532;52.124;5.480;2023-11-19T10:39:54;100771.78;;;12.92;100.00
76637;BME280;65532;52.124;5.480;2023-11-19T10:42:21;100771.53;;;12.94;100.00
76637;BME280;65532;52.124;5.480;2023-11-19T10:44:48;100771.06;;;12.97;100.00
76637;BME280;65532;52.124;5.480;2023-11-19T10:47:15;100762.91;;;12.97;100.00
76637;BME280;65532;52.124;5.480;2023-11-19T10:49:45;100749.94;;;13.04;100.00
76637;BME280;65532;52.124;5.480;2023-11-19T10:52:17;100767.50;;;13.13;100.00
76637;BME280;65532;52.124;5.480;2023-11-19T10:54:49;100763.19;;;13.17;100.00
76637;BME280;65532;52.124;5.480;2023-11-19T10:57:20;100771.78;;;13.26;100.00
76637;BME280;65532;52.124;5.480;2023-11-19T10:59:49;100767.47;;;13.30;100.00
76637;BME280;65532;52.124;5.480;2023-11-19T11:02:21;100768.31;;;13.30;100.00
76637;BME280;65532;52.124;5.480;2023-11-19T11:04:49;100762.94;;;13.35;100.00
76637;BME280;65532;52.124;5.480;2023-11-19T11:07:21;100768.41;;;13.40;100.00
76637;BME280;65532;52.124;5.480;2023-11-19T11:10:02;100763.69;;;13.53;100.00
76637;BME280;65532;52.124;5.480;2023-11-19T11:12:36;100774.41;;;13.59;100.00
76637;BME280;65532;52.124;5.480;2023-11-19T11:15:04;100778.25;;;13.63;100.00
76637;BME280;65532;52.124;5.480;2023-11-19T11:17:33;100765.47;;;13.64;100.00
76637;BME280;65532;52.124;5.480;2023-11-19T11:20:01;100775.34;;;13.70;100.00
76637;BME280;65532;52.124;5.480;2023-11-19T11:25:35;100773.25;;;13.55;100.00
76637;BME280;65532;52.124;5.480;2023-11-19T11:30:55;100755.03;;;13.34;100.00
76637;BME280;65532;52.124;5.480;2023-11-19T11:34:36;100761.63;;;13.21;100.00
76637;BME280;65532;52.124;5.480;2023-11-19T11:36:31;100764.94;;;13.23;100.00
76637;BME280;65532;52.124;5.480;2023-11-19T11:39:01;100769.88;;;13.26;100.00
76637;BME280;65532;52.124;5.480;2023-11-19T11:41:34;100755.28;;;13.32;100.00
76637;BME280;65532;52.124;5.480;2023-11-19T11:44:01;100764.69;;;13.25;100.00
76637;BME280;65532;52.124;5.480;2023-11-19T11:49:07;100758.66;;;13.06;100.00
76637;BME280;65532;52.124;5.480;2023-11-19T11:57:08;100759.84;;;13.10;100.00
76637;BME280;65532;52.124;5.480;2023-11-19T11:59:45;100746.00;;;13.11;100.00
76637;BME280;65532;52.124;5.480;2023-11-19T12:02:17;100757.13;;;13.10;100.00
76637;BME280;65532;52.124;5.480;2023-11-19T12:04:47;100750.25;;;13.07;100.00
76637;BME280;65532;52.124;5.480;2023-11-19T12:07:20;100746.72;;;13.07;100.00
76637;BME280;65532;52.124;5.480;2023-11-19T12:10:06;100738.00;;;13.05;100.00
76637;BME280;65532;52.124;5.480;2023-11-19T12:12:39;100739.00;;;12.99;100.00
76637;BME280;65532;52.124;5.480;2023-11-19T12:15:08;100733.47;;;12.94;100.00
76637;BME280;65532;52.124;5.480;2023-11-19T12:17:46;100738.59;;;12.90;100.00
76637;BME280;65532;52.124;5.480;2023-11-19T12:20:21;100730.19;;;12.92;100.00
76637;BME280;65532;52.124;5.480;2023-11-19T12:22:51;100728.19;;;13.04;100.00
76637;BME280;65532;52.124;5.480;2023-11-19T12:25:19;100715.84;;;13.13;100.00
76637;BME280;65532;52.124;5.480;2023-11-19T12:27:47;100729.94;;;13.10;100.00
76637;BME280;65532;52.124;5.480;2023-11-19T12:30:21;100733.63;;;13.04;100.00
76637;BME280;65532;52.124;5.480;2023-11-19T12:32:49;100731.63;;;12.94;100.00
76637;BME280;65532;52.124;5.480;2023-11-19T12:35:16;100724.75;;;12.92;100.00
76637;BME280;65532;52.124;5.480;2023-11-19T12:37:44;100736.38;;;12.87;100.00
76637;BME280;65532;52.124;5.480;2023-11-19T12:40:22;100741.50;;;12.83;100.00
76637;BME280;65532;52.124;5.480;2023-11-19T12:42:50;100745.28;;;12.82;100.00
76637;BME280;65532;52.124;5.480;2023-11-19T12:45:17;100750.16;;;12.80;100.00
76637;BME280;65532;52.124;5.480;2023-11-19T12:47:45;100749.09;;;12.81;100.00
76637;BME280;65532;52.124;5.480;2023-11-19T12:50:16;100740.44;;;12.84;100.00
76637;BME280;65532;52.124;5.480;2023-11-19T12:52:56;100736.19;;;12.94;100.00
76637;BME280;65532;52.124;5.480;2023-11-19T12:55:27;100736.19;;;12.94;100.00
76637;BME280;65532;52.124;5.480;2023-11-19T12:57:56;100740.00;;;12.93;100.00
76637;BME280;65532;52.124;5.480;2023-11-19T13:00:26;100731.28;;;12.90;100.00